sensor_id;sensor_type;location;lat;lon;timestamp;pressure;altitude;pressure_sealevel;temperature
67515;BMP280;60646;55.802;37.032;2023-07-22T00:01:26;99066.44;;;19.40
67515;BMP280;60646;55.802;37.032;2023-07-22T00:03:51;99054.25;;;19.31
67515;BMP280;60646;55.802;37.032;2023-07-22T00:06:17;99062.88;;;19.37
67515;BMP280;60646;55.802;37.032;2023-07-22T00:08:43;99059.28;;;19.35
67515;BMP280;60646;55.802;37.032;2023-07-22T00:11:09;99070.13;;;19.35
67515;BMP280;60646;55.802;37.032;2023-07-22T00:13:35;99069.56;;;19.36
67515;BMP280;60646;55.802;37.032;2023-07-22T00:16:01;99068.00;;;19.33
67515;BMP280;60646;55.802;37.032;2023-07-22T00:18:27;99068.75;;;19.26
67515;BMP280;60646;55.802;37.032;2023-07-22T00:20:57;99060.50;;;19.24
67515;BMP280;60646;55.802;37.032;2023-07-22T00:23:23;99071.66;;;19.28
67515;BMP280;60646;55.802;37.032;2023-07-22T00:25:49;99077.84;;;19.21
67515;BMP280;60646;55.802;37.032;2023-07-22T00:28:15;99077.47;;;19.25
67515;BMP280;60646;55.802;37.032;2023-07-22T00:30:41;99085.59;;;19.25
67515;BMP280;60646;55.802;37.032;2023-07-22T00:33:08;99080.72;;;19.23
67515;BMP280;60646;55.802;37.032;2023-07-22T00:35:34;99076.13;;;19.16
67515;BMP280;60646;55.802;37.032;2023-07-22T00:38:00;99071.97;;;19.15
67515;BMP280;60646;55.802;37.032;2023-07-22T00:40:27;99077.53;;;19.17
67515;BMP280;60646;55.802;37.032;2023-07-22T00:42:53;99074.69;;;19.15
67515;BMP280;60646;55.802;37.032;2023-07-22T00:45:19;99068.63;;;19.07
67515;BMP280;60646;55.802;37.032;2023-07-22T00:47:45;99068.97;;;19.11
67515;BMP280;60646;55.802;37.032;2023-07-22T00:50:11;99055.75;;;18.98
67515;BMP280;60646;55.802;37.032;2023-07-22T00:52:37;99074.06;;;19.07
67515;BMP280;60646;55.802;37.032;2023-07-22T00:55:04;99063.66;;;18.96
67515;BMP280;60646;55.802;37.032;2023-07-22T00:57:34;99067.31;;;18.91
67515;BMP280;60646;55.802;37.032;2023-07-22T01:00:00;99071.28;;;18.90
67515;BMP280;60646;55.802;37.032;2023-07-22T01:02:34;99079.28;;;18.88
67515;BMP280;60646;55.802;37.032;2023-07-22T01:05:01;99087.53;;;18.90
67515;BMP280;60646;55.802;37.032;2023-07-22T01:07:32;99079.69;;;18.84
67515;BMP280;60646;55.802;37.032;2023-07-22T01:09:59;99086.88;;;18.82
67515;BMP280;60646;55.802;37.032;2023-07-22T01:12:29;99077.94;;;18.72
67515;BMP280;60646;55.802;37.032;2023-07-22T01:14:55;99081.78;;;18.69
67515;BMP280;60646;55.802;37.032;2023-07-22T01:17:22;99095.63;;;18.73
67515;BMP280;60646;55.802;37.032;2023-07-22T01:19:48;99095.31;;;18.69
67515;BMP280;60646;55.802;37.032;2023-07-22T01:22:15;99097.88;;;18.67
67515;BMP280;60646;55.802;37.032;2023-07-22T01:24:42;99100.94;;;18.63
67515;BMP280;60646;55.802;37.032;2023-07-22T01:27:11;99103.63;;;18.63
67515;BMP280;60646;55.802;37.032;2023-07-22T01:29:37;99099.34;;;18.60
67515;BMP280;60646;55.802;37.032;2023-07-22T01:32:03;99104.03;;;18.60
67515;BMP280;60646;55.802;37.032;2023-07-22T01:34:30;99108.00;;;18.59
67515;BMP280;60646;55.802;37.032;2023-07-22T01:36:58;99109.44;;;18.60
67515;BMP280;60646;55.802;37.032;2023-07-22T01:39:24;99113.09;;;18.55
67515;BMP280;60646;55.802;37.032;2023-07-22T01:41:49;99121.19;;;18.55
67515;BMP280;60646;55.802;37.032;2023-07-22T01:44:15;99124.81;;;18.57
67515;BMP280;60646;55.802;37.032;2023-07-22T01:46:41;99127.34;;;18.55
67515;BMP280;60646;55.802;37.032;2023-07-22T01:49:11;99117.63;;;18.52
67515;BMP280;60646;55.802;37.032;2023-07-22T01:51:39;99129.31;;;18.55
67515;BMP280;60646;55.802;37.032;2023-07-22T01:54:07;99113.88;;;18.48
67515;BMP280;60646;55.802;37.032;2023-07-22T01:56:36;99134.41;;;18.51
67515;BMP280;60646;55.802;37.032;2023-07-22T01:59:02;99118.69;;;18.49
67515;BMP280;60646;55.802;37.032;2023-07-22T02:01:28;99115.53;;;18.43
67515;BMP280;60646;55.802;37.032;2023-07-22T02:03:55;99119.66;;;18.44
67515;BMP280;60646;55.802;37.032;2023-07-22T02:06:22;99124.84;;;18.50
67515;BMP280;60646;55.802;37.032;2023-07-22T02:08:48;99110.66;;;18.42
67515;BMP280;60646;55.802;37.032;2023-07-22T02:11:16;99121.81;;;18.46
67515;BMP280;60646;55.802;37.032;2023-07-22T02:13:42;99123.25;;;18.47
67515;BMP280;60646;55.802;37.032;2023-07-22T02:16:09;99122.94;;;18.43
67515;BMP280;60646;55.802;37.032;2023-07-22T02:18:39;99136.25;;;18.48
67515;BMP280;60646;55.802;37.032;2023-07-22T02:21:05;99136.78;;;18.47
67515;BMP280;60646;55.802;37.032;2023-07-22T02:23:31;99133.88;;;18.45
67515;BMP280;60646;55.802;37.032;2023-07-22T02:25:57;99131.75;;;18.43
67515;BMP280;60646;55.802;37.032;2023-07-22T02:28:23;99126.88;;;18.42
67515;BMP280;60646;55.802;37.032;2023-07-22T02:30:51;99139.47;;;18.47
67515;BMP280;60646;55.802;37.032;2023-07-22T02:33:21;99141.66;;;18.48
67515;BMP280;60646;55.802;37.032;2023-07-22T02:35:52;99136.38;;;18.50
67515;BMP280;60646;55.802;37.032;2023-07-22T02:38:17;99141.66;;;18.48
67515;BMP280;60646;55.802;37.032;2023-07-22T02:40:44;99140.94;;;18.48
67515;BMP280;60646;55.802;37.032;2023-07-22T02:43:10;99139.81;;;18.51
67515;BMP280;60646;55.802;37.032;2023-07-22T02:45:36;99146.59;;;18.59
67515;BMP280;60646;55.802;37.032;2023-07-22T02:48:02;99150.22;;;18.62
67515;BMP280;60646;55.802;37.032;2023-07-22T02:50:31;99139.22;;;18.60
67515;BMP280;60646;55.802;37.032;2023-07-22T02:52:57;99133.41;;;18.63
67515;BMP280;60646;55.802;37.032;2023-07-22T02:55:23;99146.09;;;18.78
67515;BMP280;60646;55.802;37.032;2023-07-22T02:57:49;99136.41;;;18.75
67515;BMP280;60646;55.802;37.032;2023-07-22T03:00:17;99152.91;;;18.86
67515;BMP280;60646;55.802;37.032;2023-07-22T03:02:51;99136.84;;;18.89
67515;BMP280;60646;55.802;37.032;2023-07-22T03:05:18;99157.06;;;19.05
67515;BMP280;60646;55.802;37.032;2023-07-22T03:07:44;99144.25;;;19.05
67515;BMP280;60646;55.802;37.032;2023-07-22T03:10:10;99152.66;;;19.17
67515;BMP280;60646;55.802;37.032;2023-07-22T03:12:37;99136.47;;;19.09
67515;BMP280;60646;55.802;37.032;2023-07-22T03:15:03;99150.72;;;19.27
67515;BMP280;60646;55.802;37.032;2023-07-22T03:17:36;99147.28;;;19.26
67515;BMP280;60646;55.802;37.032;2023-07-22T03:20:03;99151.03;;;19.31
67515;BMP280;60646;55.802;37.032;2023-07-22T03:22:43;99156.56;;;19.40
67515;BMP280;60646;55.802;37.032;2023-07-22T03:25:10;99155.59;;;19.45
67515;BMP280;60646;55.802;37.032;2023-07-22T03:27:37;99153.09;;;19.47
67515;BMP280;60646;55.802;37.032;2023-07-22T03:30:04;99157.38;;;19.50
67515;BMP280;60646;55.802;37.032;2023-07-22T03:32:34;99147.66;;;19.47
67515;BMP280;60646;55.802;37.032;2023-07-22T03:35:00;99145.09;;;19.49
67515;BMP280;60646;55.802;37.032;2023-07-22T03:37:31;99154.75;;;19.60
67515;BMP280;60646;55.802;37.032;2023-07-22T03:39:57;99143.41;;;19.54
67515;BMP280;60646;55.802;37.032;2023-07-22T03:42:23;99161.91;;;19.65
67515;BMP280;60646;55.802;37.032;2023-07-22T03:44:49;99170.19;;;19.67
67515;BMP280;60646;55.802;37.032;2023-07-22T03:47:15;99162.63;;;19.66
67515;BMP280;60646;55.802;37.032;2023-07-22T03:49:41;99157.91;;;19.66
67515;BMP280;60646;55.802;37.032;2023-07-22T03:52:07;99156.09;;;19.69
67515;BMP280;60646;55.802;37.032;2023-07-22T03:54:35;99157.50;;;19.70
67515;BMP280;60646;55.802;37.032;2023-07-22T03:57:01;99164.69;;;19.75
67515;BMP280;60646;55.802;37.032;2023-07-22T03:59:27;99166.75;;;19.84
67515;BMP280;60646;55.802;37.032;2023-07-22T04:01:56;99157.34;;;19.85
67515;BMP280;60646;55.802;37.032;2023-07-22T04:04:22;99165.22;;;19.90
67515;BMP280;60646;55.802;37.032;2023-07-22T04:06:48;99146.50;;;19.85
67515;BMP280;60646;55.802;37.032;2023-07-22T04:09:14;99151.81;;;19.92
67515;BMP280;60646;55.802;37.032;2023-07-22T04:11:39;99169.72;;;20.05
67515;BMP280;60646;55.802;37.032;2023-07-22T04:14:23;99165.34;;;20.09
67515;BMP280;60646;55.802;37.032;2023-07-22T04:16:50;99157.75;;;20.08
67515;BMP280;60646;55.802;37.032;2023-07-22T04:19:16;99163.53;;;20.12
67515;BMP280;60646;55.802;37.032;2023-07-22T04:21:44;99159.97;;;20.19
67515;BMP280;60646;55.802;37.032;2023-07-22T04:24:10;99169.84;;;20.24
67515;BMP280;60646;55.802;37.032;2023-07-22T04:26:36;99174.44;;;20.31
67515;BMP280;60646;55.802;37.032;2023-07-22T04:29:02;99159.63;;;20.32
67515;BMP280;60646;55.802;37.032;2023-07-22T04:31:28;99162.78;;;20.38
67515;BMP280;60646;55.802;37.032;2023-07-22T04:33:54;99171.69;;;20.48
67515;BMP280;60646;55.802;37.032;2023-07-22T04:36:20;99167.97;;;20.53
67515;BMP280;60646;55.802;37.032;2023-07-22T04:38:45;99174.31;;;20.65
67515;BMP280;60646;55.802;37.032;2023-07-22T04:41:11;99176.06;;;20.70
67515;BMP280;60646;55.802;37.032;2023-07-22T04:43:37;99179.19;;;20.76
67515;BMP280;60646;55.802;37.032;2023-07-22T04:46:05;99174.34;;;20.75
67515;BMP280;60646;55.802;37.032;2023-07-22T04:48:31;99190.97;;;20.88
67515;BMP280;60646;55.802;37.032;2023-07-22T04:50:57;99192.69;;;20.93
67515;BMP280;60646;55.802;37.032;2023-07-22T04:53:22;99172.69;;;20.98
67515;BMP280;60646;55.802;37.032;2023-07-22T04:55:48;99189.41;;;21.04
67515;BMP280;60646;55.802;37.032;2023-07-22T04:58:14;99184.44;;;21.10
67515;BMP280;60646;55.802;37.032;2023-07-22T05:01:01;99187.28;;;21.12
67515;BMP280;60646;55.802;37.032;2023-07-22T05:03:26;99187.16;;;21.20
67515;BMP280;60646;55.802;37.032;2023-07-22T05:05:52;99182.44;;;21.21
67515;BMP280;60646;55.802;37.032;2023-07-22T05:08:18;99186.03;;;21.33
67515;BMP280;60646;55.802;37.032;2023-07-22T05:10:44;99173.16;;;21.33
67515;BMP280;60646;55.802;37.032;2023-07-22T05:13:10;99167.16;;;21.35
67515;BMP280;60646;55.802;37.032;2023-07-22T05:15:36;99187.06;;;21.47
67515;BMP280;60646;55.802;37.032;2023-07-22T05:18:01;99189.16;;;21.48
67515;BMP280;60646;55.802;37.032;2023-07-22T05:20:27;99172.13;;;21.48
67515;BMP280;60646;55.802;37.032;2023-07-22T05:22:53;99169.16;;;21.53
67515;BMP280;60646;55.802;37.032;2023-07-22T05:25:19;99181.03;;;21.58
67515;BMP280;60646;55.802;37.032;2023-07-22T05:27:45;99178.72;;;21.64
67515;BMP280;60646;55.802;37.032;2023-07-22T05:30:11;99173.56;;;21.68
67515;BMP280;60646;55.802;37.032;2023-07-22T05:32:37;99169.84;;;21.73
67515;BMP280;60646;55.802;37.032;2023-07-22T05:35:03;99170.41;;;21.81
67515;BMP280;60646;55.802;37.032;2023-07-22T05:37:31;99174.25;;;21.87
67515;BMP280;60646;55.802;37.032;2023-07-22T05:39:58;99171.38;;;21.95
67515;BMP280;60646;55.802;37.032;2023-07-22T05:42:24;99176.09;;;22.04
67515;BMP280;60646;55.802;37.032;2023-07-22T05:44:50;99178.53;;;22.10
67515;BMP280;60646;55.802;37.032;2023-07-22T05:47:16;99164.88;;;22.19
67515;BMP280;60646;55.802;37.032;2023-07-22T05:49:43;99170.97;;;22.29
67515;BMP280;60646;55.802;37.032;2023-07-22T05:52:29;99166.69;;;22.36
67515;BMP280;60646;55.802;37.032;2023-07-22T05:54:55;99167.66;;;22.40
67515;BMP280;60646;55.802;37.032;2023-07-22T05:57:21;99161.31;;;22.47
67515;BMP280;60646;55.802;37.032;2023-07-22T05:59:46;99163.25;;;22.56
67515;BMP280;60646;55.802;37.032;2023-07-22T06:02:13;99165.38;;;22.67
67515;BMP280;60646;55.802;37.032;2023-07-22T06:04:38;99160.06;;;22.69
67515;BMP280;60646;55.802;37.032;2023-07-22T06:07:04;99172.19;;;22.78
67515;BMP280;60646;55.802;37.032;2023-07-22T06:09:30;99169.44;;;22.88
67515;BMP280;60646;55.802;37.032;2023-07-22T06:11:56;99175.97;;;22.94
67515;BMP280;60646;55.802;37.032;2023-07-22T06:14:27;99176.38;;;23.00
67515;BMP280;60646;55.802;37.032;2023-07-22T06:16:53;99169.16;;;23.05
67515;BMP280;60646;55.802;37.032;2023-07-22T06:19:20;99168.38;;;23.14
67515;BMP280;60646;55.802;37.032;2023-07-22T06:21:52;99157.47;;;23.14
67515;BMP280;60646;55.802;37.032;2023-07-22T06:24:18;99162.00;;;23.21
67515;BMP280;60646;55.802;37.032;2023-07-22T06:26:43;99166.91;;;23.34
67515;BMP280;60646;55.802;37.032;2023-07-22T06:29:09;99171.31;;;23.39
67515;BMP280;60646;55.802;37.032;2023-07-22T06:31:35;99158.78;;;23.45
67515;BMP280;60646;55.802;37.032;2023-07-22T06:34:01;99155.47;;;23.47
67515;BMP280;60646;55.802;37.032;2023-07-22T06:36:26;99155.03;;;23.62
67515;BMP280;60646;55.802;37.032;2023-07-22T06:38:52;99162.16;;;23.67
67515;BMP280;60646;55.802;37.032;2023-07-22T06:41:18;99163.94;;;23.74
67515;BMP280;60646;55.802;37.032;2023-07-22T06:43:45;99163.94;;;23.74
67515;BMP280;60646;55.802;37.032;2023-07-22T06:46:11;99159.81;;;23.85
67515;BMP280;60646;55.802;37.032;2023-07-22T06:48:37;99161.00;;;23.93
67515;BMP280;60646;55.802;37.032;2023-07-22T06:51:03;99167.66;;;24.02
67515;BMP280;60646;55.802;37.032;2023-07-22T06:53:30;99168.38;;;24.02
67515;BMP280;60646;55.802;37.032;2023-07-22T06:55:57;99168.84;;;24.10
67515;BMP280;60646;55.802;37.032;2023-07-22T06:58:23;99159.84;;;24.08
67515;BMP280;60646;55.802;37.032;2023-07-22T07:00:53;99170.06;;;24.19
67515;BMP280;60646;55.802;37.032;2023-07-22T07:03:19;99162.66;;;24.10
67515;BMP280;60646;55.802;37.032;2023-07-22T07:05:54;99169.44;;;24.20
67515;BMP280;60646;55.802;37.032;2023-07-22T07:08:20;99167.69;;;24.25
67515;BMP280;60646;55.802;37.032;2023-07-22T07:10:46;99163.06;;;24.27
67515;BMP280;60646;55.802;37.032;2023-07-22T07:13:12;99159.34;;;24.34
67515;BMP280;60646;55.802;37.032;2023-07-22T07:16:38;99168.13;;;24.56
67515;BMP280;60646;55.802;37.032;2023-07-22T07:20:00;99153.75;;;24.56
67515;BMP280;60646;55.802;37.032;2023-07-22T07:22:07;99161.09;;;24.65
67515;BMP280;60646;55.802;37.032;2023-07-22T07:24:32;99148.78;;;24.64
67515;BMP280;60646;55.802;37.032;2023-07-22T07:26:58;99163.09;;;24.76
67515;BMP280;60646;55.802;37.032;2023-07-22T07:29:24;99166.88;;;24.82
67515;BMP280;60646;55.802;37.032;2023-07-22T07:31:50;99165.19;;;24.89
67515;BMP280;60646;55.802;37.032;2023-07-22T07:34:16;99166.38;;;24.97
67515;BMP280;60646;55.802;37.032;2023-07-22T07:36:41;99164.69;;;25.04
67515;BMP280;60646;55.802;37.032;2023-07-22T07:39:07;99157.44;;;25.08
67515;BMP280;60646;55.802;37.032;2023-07-22T07:41:33;99175.69;;;25.17
67515;BMP280;60646;55.802;37.032;2023-07-22T07:43:59;99172.13;;;25.15
67515;BMP280;60646;55.802;37.032;2023-07-22T07:46:27;99176.84;;;25.26
67515;BMP280;60646;55.802;37.032;2023-07-22T07:48:56;99176.34;;;25.29
67515;BMP280;60646;55.802;37.032;2023-07-22T07:51:24;99170.16;;;25.29
67515;BMP280;60646;55.802;37.032;2023-07-22T07:53:53;99171.69;;;25.32
67515;BMP280;60646;55.802;37.032;2023-07-22T07:56:19;99169.78;;;25.34
67515;BMP280;60646;55.802;37.032;2023-07-22T07:58:46;99163.50;;;25.32
67515;BMP280;60646;55.802;37.032;2023-07-22T08:01:13;99162.78;;;25.31
67515;BMP280;60646;55.802;37.032;2023-07-22T08:03:40;99167.84;;;25.37
67515;BMP280;60646;55.802;37.032;2023-07-22T08:06:08;99167.84;;;25.37
67515;BMP280;60646;55.802;37.032;2023-07-22T08:08:34;99177.81;;;25.44
67515;BMP280;60646;55.802;37.032;2023-07-22T08:11:01;99170.63;;;25.51
67515;BMP280;60646;55.802;37.032;2023-07-22T08:13:27;99170.06;;;25.52
67515;BMP280;60646;55.802;37.032;2023-07-22T08:15:55;99166.31;;;25.59
67515;BMP280;60646;55.802;37.032;2023-07-22T08:18:21;99174.13;;;25.65
67515;BMP280;60646;55.802;37.032;2023-07-22T08:20:47;99182.38;;;25.78
67515;BMP280;60646;55.802;37.032;2023-07-22T08:23:14;99173.19;;;25.85
67515;BMP280;60646;55.802;37.032;2023-07-22T08:25:40;99178.84;;;25.89
67515;BMP280;60646;55.802;37.032;2023-07-22T08:28:06;99174.91;;;25.92
67515;BMP280;60646;55.802;37.032;2023-07-22T08:30:35;99169.63;;;25.96
67515;BMP280;60646;55.802;37.032;2023-07-22T08:33:01;99178.16;;;26.02
67515;BMP280;60646;55.802;37.032;2023-07-22T08:35:27;99181.19;;;26.08
67515;BMP280;60646;55.802;37.032;2023-07-22T08:37:52;99183.03;;;26.17
67515;BMP280;60646;55.802;37.032;2023-07-22T08:40:20;99182.03;;;26.24
67515;BMP280;60646;55.802;37.032;2023-07-22T08:42:46;99182.34;;;26.30
67515;BMP280;60646;55.802;37.032;2023-07-22T08:45:14;99172.69;;;26.29
67515;BMP280;60646;55.802;37.032;2023-07-22T08:47:45;99180.91;;;26.43
67515;BMP280;60646;55.802;37.032;2023-07-22T08:50:15;99177.03;;;26.48
67515;BMP280;60646;55.802;37.032;2023-07-22T08:52:43;99179.06;;;26.48
67515;BMP280;60646;55.802;37.032;2023-07-22T08:55:10;99185.03;;;26.58
67515;BMP280;60646;55.802;37.032;2023-07-22T08:57:36;99167.78;;;26.55
67515;BMP280;60646;55.802;37.032;2023-07-22T09:00:04;99178.44;;;26.63
67515;BMP280;60646;55.802;37.032;2023-07-22T09:02:33;99186.53;;;26.74
67515;BMP280;60646;55.802;37.032;2023-07-22T09:05:01;99171.22;;;26.69
67515;BMP280;60646;55.802;37.032;2023-07-22T09:07:30;99180.53;;;26.78
67515;BMP280;60646;55.802;37.032;2023-07-22T09:09:57;99178.09;;;26.84
67515;BMP280;60646;55.802;37.032;2023-07-22T09:12:24;99190.94;;;26.95
67515;BMP280;60646;55.802;37.032;2023-07-22T09:14:50;99182.00;;;26.94
67515;BMP280;60646;55.802;37.032;2023-07-22T09:17:17;99185.22;;;27.04
67515;BMP280;60646;55.802;37.032;2023-07-22T09:19:43;99179.41;;;27.12
67515;BMP280;60646;55.802;37.032;2023-07-22T09:22:09;99162.25;;;27.11
67515;BMP280;60646;55.802;37.032;2023-07-22T09:24:35;99167.41;;;27.19
67515;BMP280;60646;55.802;37.032;2023-07-22T09:27:00;99171.81;;;27.26
67515;BMP280;60646;55.802;37.032;2023-07-22T09:29:52;99172.59;;;27.42
67515;BMP280;60646;55.802;37.032;2023-07-22T09:32:35;99187.81;;;27.45
67515;BMP280;60646;55.802;37.032;2023-07-22T09:35:01;99178.91;;;27.31
67515;BMP280;60646;55.802;37.032;2023-07-22T09:37:38;99180.25;;;27.30
67515;BMP280;60646;55.802;37.032;2023-07-22T09:40:25;99192.81;;;27.35
67515;BMP280;60646;55.802;37.032;2023-07-22T09:43:01;99195.19;;;27.27
67515;BMP280;60646;55.802;37.032;2023-07-22T09:45:31;99191.59;;;27.09
67515;BMP280;60646;55.802;37.032;2023-07-22T09:47:58;99188.59;;;27.03
67515;BMP280;60646;55.802;37.032;2023-07-22T09:50:25;99196.31;;;27.06
67515;BMP280;60646;55.802;37.032;2023-07-22T09:52:52;99202.38;;;27.05
67515;BMP280;60646;55.802;37.032;2023-07-22T09:55:23;99195.78;;;27.10
67515;BMP280;60646;55.802;37.032;2023-07-22T09:57:54;99204.19;;;27.14
67515;BMP280;60646;55.802;37.032;2023-07-22T10:00:20;99193.50;;;27.20
67515;BMP280;60646;55.802;37.032;2023-07-22T10:02:47;99188.09;;;27.22
67515;BMP280;60646;55.802;37.032;2023-07-22T10:05:17;99195.56;;;27.35
67515;BMP280;60646;55.802;37.032;2023-07-22T10:07:47;99192.72;;;27.49
67515;BMP280;60646;55.802;37.032;2023-07-22T10:10:16;99192.41;;;27.56
67515;BMP280;60646;55.802;37.032;2023-07-22T10:12:43;99189.75;;;27.58
67515;BMP280;60646;55.802;37.032;2023-07-22T10:15:10;99192.75;;;27.64
67515;BMP280;60646;55.802;37.032;2023-07-22T10:17:39;99194.19;;;27.65
67515;BMP280;60646;55.802;37.032;2023-07-22T10:20:06;99195.63;;;27.66
67515;BMP280;60646;55.802;37.032;2023-07-22T10:22:35;99193.03;;;27.70
67515;BMP280;60646;55.802;37.032;2023-07-22T10:25:04;99197.41;;;27.75
67515;BMP280;60646;55.802;37.032;2023-07-22T10:27:32;99193.22;;;27.74
67515;BMP280;60646;55.802;37.032;2023-07-22T10:29:58;99197.28;;;27.73
67515;BMP280;60646;55.802;37.032;2023-07-22T10:32:24;99187.53;;;27.70
67515;BMP280;60646;55.802;37.032;2023-07-22T10:34:50;99193.13;;;27.72
67515;BMP280;60646;55.802;37.032;2023-07-22T10:37:19;99202.78;;;27.73
67515;BMP280;60646;55.802;37.032;2023-07-22T10:39:49;99194.38;;;27.69
67515;BMP280;60646;55.802;37.032;2023-07-22T10:42:24;99209.59;;;27.72
67515;BMP280;60646;55.802;37.032;2023-07-22T10:44:51;99192.41;;;27.56
67515;BMP280;60646;55.802;37.032;2023-07-22T10:47:32;99207.97;;;27.67
67515;BMP280;60646;55.802;37.032;2023-07-22T10:50:05;99201.53;;;27.76
67515;BMP280;60646;55.802;37.032;2023-07-22T10:52:44;99196.13;;;27.63
67515;BMP280;60646;55.802;37.032;2023-07-22T10:55:17;99200.91;;;27.62
67515;BMP280;60646;55.802;37.032;2023-07-22T10:57:53;99198.16;;;27.62
67515;BMP280;60646;55.802;37.032;2023-07-22T11:00:21;99197.91;;;27.56
67515;BMP280;60646;55.802;37.032;2023-07-22T11:03:11;99196.75;;;27.61
67515;BMP280;60646;55.802;37.032;2023-07-22T11:05:52;99199.34;;;27.57
67515;BMP280;60646;55.802;37.032;2023-07-22T11:08:48;99198.25;;;27.64
67515;BMP280;60646;55.802;37.032;2023-07-22T11:11:13;99200.56;;;27.54
67515;BMP280;60646;55.802;37.032;2023-07-22T11:13:39;99196.84;;;27.48
67515;BMP280;60646;55.802;37.032;2023-07-22T11:16:10;99208.16;;;27.56
67515;BMP280;60646;55.802;37.032;2023-07-22T11:18:37;99204.63;;;27.53
67515;BMP280;60646;55.802;37.032;2023-07-22T11:21:07;99212.78;;;27.51
67515;BMP280;60646;55.802;37.032;2023-07-22T11:23:33;99201.66;;;27.33
67515;BMP280;60646;55.802;37.032;2023-07-22T11:26:01;99221.97;;;27.42
67515;BMP280;60646;55.802;37.032;2023-07-22T11:28:27;99220.34;;;27.37
67515;BMP280;60646;55.802;37.032;2023-07-22T11:30:53;99213.38;;;27.34
67515;BMP280;60646;55.802;37.032;2023-07-22T11:33:19;99210.53;;;27.32
67515;BMP280;60646;55.802;37.032;2023-07-22T11:35:45;99221.78;;;27.38
67515;BMP280;60646;55.802;37.032;2023-07-22T11:38:14;99218.41;;;27.40
67515;BMP280;60646;55.802;37.032;2023-07-22T11:40:41;99220.25;;;27.35
67515;BMP280;60646;55.802;37.032;2023-07-22T11:43:06;99232.56;;;27.34
67515;BMP280;60646;55.802;37.032;2023-07-22T11:45:33;99232.94;;;27.42
67515;BMP280;60646;55.802;37.032;2023-07-22T11:47:59;99229.66;;;27.46
67515;BMP280;60646;55.802;37.032;2023-07-22T11:50:33;99221.81;;;27.54
67515;BMP280;60646;55.802;37.032;2023-07-22T11:52:59;99201.19;;;27.53
67515;BMP280;60646;55.802;37.032;2023-07-22T11:55:26;99201.97;;;27.55
67515;BMP280;60646;55.802;37.032;2023-07-22T11:57:55;99207.09;;;27.63
67515;BMP280;60646;55.802;37.032;2023-07-22T12:00:21;99213.13;;;27.59
67515;BMP280;60646;55.802;37.032;2023-07-22T12:02:47;99217.31;;;27.60
67515;BMP280;60646;55.802;37.032;2023-07-22T12:05:21;99244.13;;;27.62
67515;BMP280;60646;55.802;37.032;2023-07-22T12:07:47;99252.09;;;27.56
67515;BMP280;60646;55.802;37.032;2023-07-22T12:10:15;99253.22;;;27.51
67515;BMP280;60646;55.802;37.032;2023-07-22T12:12:42;99236.72;;;27.35
67515;BMP280;60646;55.802;37.032;2023-07-22T12:15:16;99219.63;;;27.21
67515;BMP280;60646;55.802;37.032;2023-07-22T12:17:59;99223.50;;;27.16
67515;BMP280;60646;55.802;37.032;2023-07-22T12:20:26;99225.34;;;27.27
67515;BMP280;60646;55.802;37.032;2023-07-22T12:22:52;99228.78;;;27.12
67515;BMP280;60646;55.802;37.032;2023-07-22T12:25:18;99204.44;;;27.04
67515;BMP280;60646;55.802;37.032;2023-07-22T12:27:48;99204.19;;;27.14
67515;BMP280;60646;55.802;37.032;2023-07-22T12:30:49;99214.22;;;27.23
67515;BMP280;60646;55.802;37.032;2023-07-22T12:33:25;99211.19;;;27.17
67515;BMP280;60646;55.802;37.032;2023-07-22T12:35:55;99205.59;;;27.15
67515;BMP280;60646;55.802;37.032;2023-07-22T12:38:21;99201.75;;;27.20
67515;BMP280;60646;55.802;37.032;2023-07-22T12:40:46;99195.31;;;27.29
67515;BMP280;60646;55.802;37.032;2023-07-22T12:43:12;99201.06;;;27.35
67515;BMP280;60646;55.802;37.032;2023-07-22T12:45:38;99202.66;;;27.40
67515;BMP280;60646;55.802;37.032;2023-07-22T12:48:04;99194.34;;;27.38
67515;BMP280;60646;55.802;37.032;2023-07-22T12:50:31;99184.78;;;27.39
67515;BMP280;60646;55.802;37.032;2023-07-22T12:52:58;99193.91;;;27.44
67515;BMP280;60646;55.802;37.032;2023-07-22T12:55:24;99190.53;;;27.45
67515;BMP280;60646;55.802;37.032;2023-07-22T12:57:50;99178.06;;;27.42
67515;BMP280;60646;55.802;37.032;2023-07-22T13:00:16;99192.13;;;27.50
67515;BMP280;60646;55.802;37.032;2023-07-22T13:02:44;99196.47;;;27.55
67515;BMP280;60646;55.802;37.032;2023-07-22T13:05:10;99182.31;;;27.45
67515;BMP280;60646;55.802;37.032;2023-07-22T13:07:38;99186.50;;;27.62
67515;BMP280;60646;55.802;37.032;2023-07-22T13:10:06;99169.84;;;27.58
67515;BMP280;60646;55.802;37.032;2023-07-22T13:12:38;99170.91;;;27.66
67515;BMP280;60646;55.802;37.032;2023-07-22T13:15:05;99169.41;;;27.63
67515;BMP280;60646;55.802;37.032;2023-07-22T13:17:31;99165.69;;;27.72
67515;BMP280;60646;55.802;37.032;2023-07-22T13:19:57;99150.44;;;27.69
67515;BMP280;60646;55.802;37.032;2023-07-22T13:22:23;99153.25;;;27.71
67515;BMP280;60646;55.802;37.032;2023-07-22T13:24:49;99147.78;;;27.71
67515;BMP280;60646;55.802;37.032;2023-07-22T13:27:15;99134.13;;;27.73
67515;BMP280;60646;55.802;37.032;2023-07-22T13:29:41;99148.13;;;27.79
67515;BMP280;60646;55.802;37.032;2023-07-22T13:32:07;99137.69;;;27.76
67515;BMP280;60646;55.802;37.032;2023-07-22T13:34:33;99141.38;;;27.82
67515;BMP280;60646;55.802;37.032;2023-07-22T13:36:58;99136.53;;;27.81
67515;BMP280;60646;55.802;37.032;2023-07-22T13:39:24;99140.13;;;27.85
67515;BMP280;60646;55.802;37.032;2023-07-22T13:41:50;99141.56;;;27.86
67515;BMP280;60646;55.802;37.032;2023-07-22T13:44:16;99128.56;;;27.87
67515;BMP280;60646;55.802;37.032;2023-07-22T13:46:42;99139.09;;;27.92
67515;BMP280;60646;55.802;37.032;2023-07-22T13:49:08;99132.97;;;27.94
67515;BMP280;60646;55.802;37.032;2023-07-22T13:51:34;99132.34;;;27.95
67515;BMP280;60646;55.802;37.032;2023-07-22T13:54:00;99132.59;;;28.01
67515;BMP280;60646;55.802;37.032;2023-07-22T13:56:26;99142.06;;;27.98
67515;BMP280;60646;55.802;37.032;2023-07-22T13:58:53;99147.94;;;28.06
67515;BMP280;60646;55.802;37.032;2023-07-22T14:01:20;99159.78;;;28.11